createdAt,value
2019-02-18T00:01:13.171Z,7.93
2019-02-18T00:03:40.159Z,7.30
2019-02-18T00:06:06.847Z,10.10
2019-02-18T00:08:33.550Z,9.80
2019-02-18T00:11:00.352Z,9.23
2019-02-18T00:13:27.055Z,8.97
2019-02-18T00:15:53.875Z,9.37
2019-02-18T00:18:20.579Z,7.83
2019-02-18T00:20:47.300Z,8.67
2019-02-18T00:23:13.998Z,10.53
2019-02-18T00:25:40.695Z,9.63
2019-02-18T00:28:07.396Z,10.43
2019-02-18T00:30:34.205Z,8.57
2019-02-18T00:33:00.902Z,9.67
2019-02-18T00:35:27.608Z,8.57
2019-02-18T00:37:54.302Z,9.33
2019-02-18T00:40:21.016Z,10.63
2019-02-18T00:42:47.719Z,8.13
2019-02-18T00:45:14.427Z,8.97
2019-02-18T00:47:41.129Z,8.60
2019-02-18T00:50:08.340Z,10.07
2019-02-18T00:52:35.143Z,9.33
2019-02-18T00:55:01.947Z,9.40
2019-02-18T00:57:28.664Z,10.43
2019-02-18T00:59:55.722Z,10.90
2019-02-18T01:02:22.539Z,7.83
2019-02-18T01:04:49.831Z,9.83
2019-02-18T01:07:16.531Z,9.53
2019-02-18T01:09:43.359Z,12.07
2019-02-18T01:12:10.061Z,8.80
2019-02-18T01:14:36.768Z,9.50
2019-02-18T01:17:04.011Z,9.47
2019-02-18T01:19:30.734Z,10.37
2019-02-18T01:21:57.523Z,10.20
2019-02-18T01:24:24.237Z,10.73
2019-02-18T01:26:50.939Z,9.73
2019-02-18T01:29:17.647Z,10.97
2019-02-18T01:31:44.444Z,10.10
2019-02-18T01:34:11.149Z,9.10
2019-02-18T01:36:37.856Z,10.33
2019-02-18T01:39:05.234Z,8.73
2019-02-18T01:41:31.931Z,9.97
2019-02-18T01:43:58.655Z,9.57
2019-02-18T01:46:25.355Z,10.63
2019-02-18T01:48:52.051Z,9.27
2019-02-18T01:51:18.751Z,10.07
2019-02-18T01:53:45.463Z,8.97
2019-02-18T01:56:12.167Z,9.00
2019-02-18T01:58:38.867Z,9.67
2019-02-18T02:01:05.675Z,8.90
2019-02-18T02:03:32.392Z,10.18
2019-02-18T02:05:59.079Z,11.77
2019-02-18T02:08:25.802Z,10.82
2019-02-18T02:10:52.516Z,11.73
2019-02-18T02:13:33.215Z,11.63
2019-02-18T02:16:01.815Z,10.25
2019-02-18T02:18:28.535Z,10.17
2019-02-18T02:20:55.235Z,11.68
2019-02-18T02:23:21.947Z,10.38
2019-02-18T02:25:48.639Z,9.93
2019-02-18T02:28:15.342Z,9.75
2019-02-18T02:30:42.156Z,10.48
2019-02-18T02:33:08.968Z,10.63
2019-02-18T02:35:35.683Z,9.45
2019-02-18T02:38:07.665Z,9.57
2019-02-18T02:40:30.997Z,11.33
2019-02-18T02:42:57.691Z,10.38
2019-02-18T02:45:24.403Z,10.28
2019-02-18T02:47:51.104Z,12.37
2019-02-18T02:50:17.807Z,9.73
2019-02-18T02:52:44.507Z,9.80
2019-02-18T02:55:11.333Z,10.80
2019-02-18T02:57:38.181Z,9.75
2019-02-18T03:00:06.815Z,10.60
2019-02-18T03:02:33.523Z,10.00
2019-02-18T03:05:00.473Z,9.78
2019-02-18T03:07:27.338Z,11.85
2019-02-18T03:09:54.055Z,10.43
2019-02-18T03:12:20.763Z,11.55
2019-02-18T03:14:47.467Z,10.80
2019-02-18T03:17:14.179Z,10.20
2019-02-18T03:19:40.874Z,10.38
2019-02-18T03:22:07.604Z,11.25
2019-02-18T03:24:34.420Z,10.48
2019-02-18T03:27:01.142Z,10.18
2019-02-18T03:30:20.128Z,10.95
2019-02-18T03:32:51.077Z,9.78
2019-02-18T03:35:17.776Z,9.63
2019-02-18T03:37:44.475Z,9.70
2019-02-18T03:40:11.279Z,11.18
2019-02-18T03:42:37.984Z,12.07
2019-02-18T03:45:04.794Z,10.98
2019-02-18T03:47:31.503Z,10.98
2019-02-18T03:49:58.220Z,11.10
2019-02-18T03:52:24.927Z,11.12
2019-02-18T03:54:51.639Z,12.35
2019-02-18T03:57:18.446Z,11.25
2019-02-18T03:59:45.247Z,11.33
2019-02-18T04:02:12.544Z,11.05
2019-02-18T04:04:39.348Z,12.88
2019-02-18T04:07:06.063Z,10.70
2019-02-18T04:09:32.773Z,10.65
2019-02-18T04:11:59.465Z,10.05
2019-02-18T04:14:26.300Z,11.18
2019-02-18T04:16:53.000Z,11.35
2019-02-18T04:19:19.699Z,12.23
2019-02-18T04:21:46.421Z,13.15
2019-02-18T04:24:13.111Z,11.10
2019-02-18T04:26:40.679Z,12.60
2019-02-18T04:29:07.556Z,11.95
2019-02-18T04:31:34.280Z,11.83
2019-02-18T04:34:00.991Z,14.73
2019-02-18T04:36:27.704Z,16.02
2019-02-18T04:38:54.587Z,12.68
2019-02-18T04:41:21.539Z,12.68
2019-02-18T04:43:48.251Z,14.00
2019-02-18T04:46:14.959Z,13.98
2019-02-18T04:48:41.663Z,11.95
2019-02-18T04:51:08.375Z,12.63
2019-02-18T04:53:35.088Z,12.58
2019-02-18T04:56:01.813Z,12.10
2019-02-18T04:58:28.511Z,12.63
2019-02-18T05:00:55.207Z,14.30
2019-02-18T05:03:21.925Z,13.72
2019-02-18T05:05:48.732Z,12.63
2019-02-18T05:08:15.431Z,12.28
2019-02-18T05:10:42.127Z,13.25
2019-02-18T05:13:08.832Z,13.62
2019-02-18T05:15:35.530Z,14.10
2019-02-18T05:18:02.352Z,13.38
2019-02-18T05:20:29.039Z,13.05
2019-02-18T05:22:55.739Z,14.07
2019-02-18T05:25:22.448Z,15.38
2019-02-18T05:27:49.156Z,14.07
2019-02-18T05:30:16.574Z,14.70
2019-02-18T05:32:43.276Z,14.38
2019-02-18T05:35:10.068Z,15.65
2019-02-18T05:37:36.772Z,12.53
2019-02-18T05:40:04.275Z,17.37
2019-02-18T05:42:30.992Z,14.05
2019-02-18T05:44:57.700Z,16.32
2019-02-18T05:47:24.394Z,14.43
2019-02-18T05:49:51.089Z,14.30
2019-02-18T05:52:17.793Z,17.37
2019-02-18T05:54:44.513Z,14.63
2019-02-18T05:57:11.183Z,14.18
2019-02-18T05:59:37.887Z,14.33
2019-02-18T06:02:04.600Z,14.60
2019-02-18T06:04:31.308Z,15.45
2019-02-18T06:06:58.041Z,13.85
2019-02-18T06:09:29.914Z,14.78
2019-02-18T06:11:53.347Z,16.95
2019-02-18T06:14:20.031Z,15.30
2019-02-18T06:16:46.744Z,15.23
2019-02-18T06:19:13.444Z,15.85
2019-02-18T06:21:40.155Z,14.47
2019-02-18T06:24:06.853Z,17.12
2019-02-18T06:26:33.540Z,17.82
2019-02-18T06:29:00.255Z,16.75
2019-02-18T06:31:26.956Z,13.50
2019-02-18T06:33:53.678Z,15.70
2019-02-18T06:36:20.479Z,14.83
2019-02-18T06:38:47.186Z,14.68
2019-02-18T06:41:13.887Z,17.00
2019-02-18T06:43:40.835Z,15.38
2019-02-18T06:46:27.209Z,17.35
2019-02-18T06:48:59.052Z,16.27
2019-02-18T06:51:26.624Z,16.10
2019-02-18T06:53:53.327Z,19.00
2019-02-18T06:56:29.675Z,16.85
2019-02-18T06:59:06.696Z,18.17
2019-02-18T07:01:41.283Z,16.10
2019-02-18T07:04:42.311Z,17.30
2019-02-18T07:07:13.715Z,17.37
2019-02-18T07:10:06.070Z,19.07
2019-02-18T07:12:39.247Z,17.98
2019-02-18T07:15:06.239Z,15.23
2019-02-18T07:17:32.941Z,18.12
2019-02-18T07:19:59.655Z,17.15
2019-02-18T07:22:26.456Z,17.10
2019-02-18T07:24:53.161Z,16.55
2019-02-18T07:27:19.853Z,18.10
2019-02-18T07:29:46.563Z,16.70
2019-02-18T07:32:13.270Z,17.85
2019-02-18T07:34:39.976Z,17.75
2019-02-18T07:37:06.690Z,18.82
2019-02-18T07:39:33.387Z,14.40
2019-02-18T07:42:00.108Z,16.20
2019-02-18T07:44:26.819Z,17.92
2019-02-18T07:46:53.548Z,15.45
2019-02-18T07:49:20.260Z,16.37
2019-02-18T07:51:46.983Z,17.55
2019-02-18T07:54:13.691Z,15.85
2019-02-18T07:56:40.415Z,17.80
2019-02-18T07:59:07.123Z,17.12
2019-02-18T08:01:33.935Z,15.10
2019-02-18T08:04:00.989Z,17.00
2019-02-18T08:06:27.702Z,19.30
2019-02-18T08:08:54.404Z,17.02
2019-02-18T08:11:21.122Z,14.90
2019-02-18T08:13:47.832Z,13.80
2019-02-18T08:16:14.577Z,17.67
2019-02-18T08:18:41.287Z,13.48
2019-02-18T08:21:08.005Z,15.13
2019-02-18T08:23:34.704Z,12.03
2019-02-18T08:26:01.665Z,13.63
2019-02-18T08:28:28.364Z,14.40
2019-02-18T08:30:55.067Z,12.70
2019-02-18T08:33:21.784Z,12.47
2019-02-18T08:35:48.519Z,13.90
2019-02-18T08:38:15.273Z,12.60
2019-02-18T08:40:42.006Z,14.43
2019-02-18T08:43:08.853Z,12.60
2019-02-18T08:45:35.665Z,13.10
2019-02-18T08:48:02.494Z,13.10
2019-02-18T08:50:29.244Z,13.33
2019-02-18T08:52:56.328Z,12.50
2019-02-18T08:55:23.023Z,13.17
2019-02-18T08:57:49.727Z,13.80
2019-02-18T09:00:16.455Z,16.23
2019-02-18T09:02:43.313Z,11.23
2019-02-18T09:05:10.273Z,13.03
2019-02-18T09:07:37.008Z,12.63
2019-02-18T09:10:04.430Z,12.50
2019-02-18T09:12:31.127Z,15.97
2019-02-18T09:14:57.864Z,11.63
2019-02-18T09:17:24.585Z,10.67
2019-02-18T09:19:51.291Z,11.87
2019-02-18T09:22:36.019Z,13.13
2019-02-18T09:25:09.327Z,10.80
2019-02-18T09:27:36.035Z,15.93
2019-02-18T09:30:03.995Z,12.70
2019-02-18T09:32:30.716Z,10.40
2019-02-18T09:35:01.938Z,12.13
2019-02-18T09:37:26.223Z,10.97
2019-02-18T09:39:52.967Z,11.43
2019-02-18T09:42:19.661Z,13.13
2019-02-18T09:44:46.375Z,10.50
2019-02-18T09:47:13.176Z,11.43
2019-02-18T09:49:39.903Z,11.57
2019-02-18T09:52:06.713Z,9.77
2019-02-18T09:54:33.415Z,10.77
2019-02-18T09:57:00.120Z,12.37
2019-02-18T09:59:26.833Z,10.40
2019-02-18T10:01:53.695Z,12.97
2019-02-18T10:04:22.517Z,11.47
2019-02-18T10:06:49.016Z,9.93
2019-02-18T10:09:15.719Z,11.87
2019-02-18T10:11:42.419Z,11.93
2019-02-18T10:14:09.237Z,11.60
2019-02-18T10:16:35.929Z,12.13
2019-02-18T10:19:02.631Z,14.33
2019-02-18T10:21:29.328Z,10.97
2019-02-18T10:23:56.039Z,12.73
2019-02-18T10:26:22.747Z,11.37
2019-02-18T10:28:49.447Z,14.37
2019-02-18T10:31:16.159Z,12.07
2019-02-18T10:33:42.966Z,13.80
2019-02-18T10:36:09.667Z,15.47
2019-02-18T10:38:36.386Z,15.20
2019-02-18T10:41:06.851Z,14.20
2019-02-18T10:43:32.729Z,12.57
2019-02-18T10:45:59.633Z,12.83
2019-02-18T10:48:26.639Z,13.60
2019-02-18T10:50:53.343Z,13.30
2019-02-18T10:53:20.051Z,12.23
2019-02-18T10:55:46.751Z,13.17
2019-02-18T10:58:13.447Z,13.50
2019-02-18T11:00:40.160Z,13.83
2019-02-18T11:03:06.879Z,14.80
2019-02-18T11:05:33.584Z,14.87
2019-02-18T11:08:00.305Z,14.37
2019-02-18T11:10:27.382Z,12.10
2019-02-18T11:12:54.082Z,13.03
2019-02-18T11:15:20.792Z,14.07
2019-02-18T11:17:47.505Z,14.40
2019-02-18T11:20:14.221Z,12.47
2019-02-18T11:22:41.020Z,15.13
2019-02-18T11:25:08.467Z,16.30
2019-02-18T11:27:35.280Z,17.63
2019-02-18T11:30:03.181Z,13.90
2019-02-18T11:32:30.371Z,14.53
2019-02-18T11:34:57.075Z,16.07
2019-02-18T11:37:23.781Z,14.33
2019-02-18T11:39:50.504Z,15.40
2019-02-18T11:42:17.191Z,15.10
2019-02-18T11:44:43.897Z,14.37
2019-02-18T11:47:10.608Z,13.73
2019-02-18T11:49:37.309Z,13.63
2019-02-18T11:52:04.025Z,14.93
2019-02-18T11:54:30.824Z,15.20
2019-02-18T11:56:57.541Z,16.93
2019-02-18T11:59:24.715Z,13.97
2019-02-18T12:01:51.579Z,15.83
2019-02-18T12:04:18.306Z,16.40
2019-02-18T12:06:45.375Z,12.33
2019-02-18T12:09:12.667Z,14.93
2019-02-18T12:11:39.382Z,15.50
2019-02-18T12:14:06.180Z,14.90
2019-02-18T12:16:32.881Z,13.30
2019-02-18T12:18:59.579Z,12.37
2019-02-18T12:21:26.275Z,13.40
2019-02-18T12:23:52.976Z,14.97
2019-02-18T12:26:19.679Z,14.40
2019-02-18T12:28:46.975Z,13.40
2019-02-18T12:31:13.691Z,15.40
2019-02-18T12:33:40.403Z,16.87
2019-02-18T12:36:26.745Z,14.50
2019-02-18T12:38:53.441Z,13.83
2019-02-18T12:41:20.224Z,13.27
2019-02-18T12:43:46.944Z,12.67
2019-02-18T12:46:16.147Z,11.43
2019-02-18T12:48:42.439Z,11.73
2019-02-18T12:51:09.235Z,10.60
2019-02-18T12:53:36.030Z,10.17
2019-02-18T12:56:03.136Z,13.17
2019-02-18T12:58:30.577Z,10.77
2019-02-18T13:00:57.276Z,12.60
2019-02-18T13:03:24.455Z,11.43
2019-02-18T13:05:51.152Z,11.83
2019-02-18T13:08:17.955Z,11.10
2019-02-18T13:10:44.855Z,10.97
2019-02-18T13:13:11.557Z,9.67
2019-02-18T13:15:38.270Z,10.67
2019-02-18T13:20:31.659Z,10.17
2019-02-18T13:22:58.449Z,10.50
2019-02-18T13:25:25.442Z,11.23
2019-02-18T13:27:52.151Z,11.87
2019-02-18T13:30:19.725Z,12.53
2019-02-18T13:32:46.642Z,10.73
2019-02-18T13:35:13.339Z,9.77
2019-02-18T13:37:40.479Z,7.97
2019-02-18T13:40:07.452Z,7.90
2019-02-18T13:42:34.606Z,13.13
2019-02-18T13:45:01.884Z,11.63
2019-02-18T13:47:28.591Z,10.27
2019-02-18T13:49:55.392Z,10.33
2019-02-18T13:52:22.073Z,10.17
2019-02-18T13:54:49.208Z,9.73
2019-02-18T13:57:16.483Z,8.70
2019-02-18T13:59:43.381Z,9.70
2019-02-18T14:02:10.295Z,9.57
2019-02-18T14:04:37.399Z,10.30
2019-02-18T14:07:04.088Z,9.00
2019-02-18T14:09:30.891Z,11.93
2019-02-18T14:11:57.927Z,7.90
2019-02-18T14:14:24.724Z,9.47
2019-02-18T14:16:51.438Z,9.47
2019-02-18T14:19:18.123Z,8.63
2019-02-18T14:21:45.142Z,8.50
2019-02-18T14:24:11.839Z,10.37
2019-02-18T14:26:38.543Z,9.17
2019-02-18T14:29:05.444Z,10.37
2019-02-18T14:31:32.340Z,8.13
2019-02-18T14:33:59.040Z,10.63
2019-02-18T14:36:25.735Z,10.03
2019-02-18T14:38:52.466Z,15.00
2019-02-18T14:41:19.470Z,10.30
2019-02-18T14:43:46.183Z,10.83
2019-02-18T14:46:12.996Z,8.30
2019-02-18T14:48:39.716Z,10.23
2019-02-18T14:51:06.627Z,11.60
2019-02-18T14:53:33.331Z,12.33
2019-02-18T14:56:00.138Z,11.53
2019-02-18T14:58:27.239Z,10.77
2019-02-18T15:00:53.939Z,11.70
2019-02-18T15:03:20.687Z,9.97
2019-02-18T15:05:47.608Z,11.47
2019-02-18T15:08:14.361Z,13.70
2019-02-18T15:10:41.166Z,12.17
2019-02-18T15:13:07.862Z,12.70
2019-02-18T15:15:34.669Z,10.20
2019-02-18T15:18:01.875Z,15.30
2019-02-18T15:20:28.571Z,12.83
2019-02-18T15:22:55.287Z,12.30
2019-02-18T15:25:22.096Z,12.47
2019-02-18T15:27:48.913Z,14.90
2019-02-18T15:30:16.994Z,10.67
2019-02-18T15:32:43.827Z,13.40
2019-02-18T15:35:12.862Z,10.70
2019-02-18T15:37:39.656Z,12.43
2019-02-18T15:40:07.423Z,11.13
2019-02-18T15:42:41.812Z,14.13
2019-02-18T15:45:03.480Z,13.33
2019-02-18T15:47:30.422Z,18.13
2019-02-18T15:49:57.263Z,13.33
2019-02-18T15:52:24.896Z,12.20
2019-02-18T15:54:51.701Z,12.60
2019-02-18T15:57:18.607Z,15.07
2019-02-18T15:59:45.320Z,17.47
2019-02-18T16:02:12.063Z,15.13
2019-02-18T16:04:38.897Z,14.87
2019-02-18T16:07:25.278Z,12.63
2019-02-18T16:09:52.100Z,14.33
2019-02-18T16:12:18.786Z,12.53
2019-02-18T16:14:45.498Z,15.43
2019-02-18T16:17:12.191Z,14.73
2019-02-18T16:19:38.892Z,13.80
2019-02-18T16:22:05.847Z,17.23
2019-02-18T16:24:32.536Z,14.90
2019-02-18T16:26:59.229Z,15.63
2019-02-18T16:29:26.184Z,12.73
2019-02-18T16:31:52.979Z,14.90
2019-02-18T16:34:19.700Z,16.90
2019-02-18T16:36:46.527Z,18.23
2019-02-18T16:39:13.582Z,13.83
2019-02-18T16:41:40.290Z,15.20
2019-02-18T16:44:06.994Z,15.50
2019-02-18T16:46:33.685Z,17.40
2019-02-18T16:49:00.783Z,19.27
2019-02-18T16:51:27.583Z,16.67
2019-02-18T16:53:54.284Z,20.10
2019-02-18T16:56:20.995Z,15.97
2019-02-18T16:58:47.717Z,17.87
2019-02-18T17:01:14.911Z,15.23
2019-02-18T17:03:41.604Z,15.87
2019-02-18T17:06:08.395Z,16.00
2019-02-18T17:08:35.129Z,13.93
2019-02-18T17:11:01.825Z,16.30
2019-02-18T17:13:28.662Z,15.60
2019-02-18T17:15:55.360Z,14.60
2019-02-18T17:18:22.074Z,17.40
2019-02-18T17:20:48.998Z,18.53
2019-02-18T17:23:15.697Z,15.23
2019-02-18T17:25:42.392Z,15.90
2019-02-18T17:28:09.731Z,17.53
2019-02-18T17:30:36.428Z,15.87
2019-02-18T17:33:03.227Z,16.17
2019-02-18T17:35:29.935Z,15.73
2019-02-18T17:37:56.656Z,16.13
2019-02-18T17:40:24.163Z,15.87
2019-02-18T17:42:50.860Z,17.07
2019-02-18T17:45:17.676Z,15.10
2019-02-18T17:47:44.466Z,17.50
2019-02-18T17:50:12.487Z,16.03
2019-02-18T17:52:39.177Z,17.93
2019-02-18T17:55:07.627Z,15.47
2019-02-18T17:57:34.330Z,15.77
2019-02-18T18:00:01.222Z,15.17
2019-02-18T18:02:28.238Z,15.37
2019-02-18T18:04:54.925Z,15.27
2019-02-18T18:07:21.626Z,17.07
2019-02-18T18:09:48.339Z,17.33
2019-02-18T18:12:15.031Z,16.40
2019-02-18T18:14:41.749Z,17.23
2019-02-18T18:17:10.307Z,19.30
2019-02-18T18:19:37.016Z,18.27
2019-02-18T18:22:04.032Z,16.30
2019-02-18T18:24:30.729Z,14.20
2019-02-18T18:26:57.435Z,18.13
2019-02-18T18:29:24.139Z,18.07
2019-02-18T18:31:50.831Z,23.03
2019-02-18T18:34:17.559Z,19.90
2019-02-18T18:36:44.671Z,20.67
2019-02-18T18:39:11.370Z,23.37
2019-02-18T18:41:38.064Z,23.47
2019-02-18T18:44:04.781Z,19.63
2019-02-18T18:46:31.508Z,19.23
2019-02-18T18:48:58.220Z,17.87
2019-02-18T18:51:24.923Z,18.77
2019-02-18T18:53:52.323Z,17.70
2019-02-18T18:56:19.139Z,17.87
2019-02-18T18:58:46.391Z,21.27
2019-02-18T19:01:13.297Z,18.40
2019-02-18T19:03:39.987Z,21.67
2019-02-18T19:06:06.698Z,26.03
2019-02-18T19:08:33.408Z,21.10
2019-02-18T19:11:01.231Z,20.87
2019-02-18T19:13:27.920Z,19.60
2019-02-18T19:15:54.635Z,17.23
2019-02-18T19:18:21.348Z,18.57
2019-02-18T19:20:48.048Z,17.87
2019-02-18T19:23:14.760Z,18.57
2019-02-18T19:25:41.459Z,16.80
2019-02-18T19:28:08.164Z,20.63
2019-02-18T19:30:34.882Z,15.93
2019-02-18T19:33:01.592Z,19.13
2019-02-18T19:35:28.403Z,16.20
2019-02-18T19:37:55.104Z,15.13
2019-02-18T19:40:21.811Z,17.67
2019-02-18T19:42:48.526Z,16.73
2019-02-18T19:45:17.059Z,14.23
2019-02-18T19:47:43.916Z,16.03
2019-02-18T19:50:10.727Z,16.33
2019-02-18T19:52:37.440Z,16.00
2019-02-18T19:55:04.939Z,18.07
2019-02-18T19:57:31.658Z,15.77
2019-02-18T19:59:58.703Z,14.10
2019-02-18T20:02:25.957Z,15.07
2019-02-18T20:04:53.691Z,13.67
2019-02-18T20:07:20.407Z,17.13
2019-02-18T20:09:47.444Z,18.40
2019-02-18T20:12:14.376Z,18.47
2019-02-18T20:14:41.393Z,15.53
2019-02-18T20:17:08.091Z,12.97
2019-02-18T20:19:34.800Z,14.50
2019-02-18T20:22:02.143Z,16.60
2019-02-18T20:24:28.850Z,17.87
2019-02-18T20:26:55.556Z,17.73
2019-02-18T20:29:22.276Z,14.97
2019-02-18T20:31:49.309Z,15.03
2019-02-18T20:34:16.016Z,17.10
2019-02-18T20:36:42.738Z,15.63
2019-02-18T20:39:10.053Z,16.43
2019-02-18T20:41:36.772Z,14.20
2019-02-18T20:44:07.459Z,15.70
2019-02-18T20:46:32.082Z,17.27
2019-02-18T20:48:58.794Z,17.20
2019-02-18T20:51:25.903Z,15.47
2019-02-18T20:53:52.725Z,15.47
2019-02-18T20:56:19.447Z,15.37
2019-02-18T20:58:46.165Z,13.80
2019-02-18T21:01:12.871Z,14.57
2019-02-18T21:03:39.583Z,14.53
2019-02-18T21:06:06.291Z,15.37
2019-02-18T21:08:33.004Z,17.93
2019-02-18T21:10:59.936Z,13.80
2019-02-18T21:13:26.855Z,15.20
2019-02-18T21:15:53.867Z,14.60
2019-02-18T21:18:20.559Z,16.83
2019-02-18T21:20:47.391Z,12.17
2019-02-18T21:23:14.200Z,13.03
2019-02-18T21:25:40.899Z,15.57
2019-02-18T21:28:07.610Z,13.37
2019-02-18T21:30:34.320Z,14.17
2019-02-18T21:33:01.020Z,13.23
2019-02-18T21:35:27.727Z,12.80
2019-02-18T21:37:54.467Z,14.20
2019-02-18T21:40:21.379Z,18.10
2019-02-18T21:42:48.176Z,15.63
2019-02-18T21:45:15.091Z,13.53
2019-02-18T21:47:41.896Z,16.40
2019-02-18T21:50:09.518Z,17.40
2019-02-18T21:52:36.943Z,17.43
2019-02-18T21:55:03.888Z,12.83
2019-02-18T21:57:30.683Z,13.93
2019-02-18T21:59:57.487Z,16.50
2019-02-18T22:02:24.201Z,14.40
2019-02-18T22:04:51.384Z,13.43
2019-02-18T22:07:18.213Z,16.30
2019-02-18T22:09:45.075Z,14.07
2019-02-18T22:12:12.083Z,14.77
2019-02-18T22:14:38.803Z,13.63
2019-02-18T22:17:05.750Z,17.80
2019-02-18T22:19:32.460Z,15.23
2019-02-18T22:21:59.166Z,14.23
2019-02-18T22:24:25.876Z,12.73
2019-02-18T22:26:52.583Z,16.10
2019-02-18T22:29:19.291Z,15.27
2019-02-18T22:31:46.495Z,15.23
2019-02-18T22:34:13.198Z,14.17
2019-02-18T22:36:39.907Z,16.20
2019-02-18T22:39:07.712Z,14.27
2019-02-18T22:41:34.432Z,16.23
2019-02-18T22:44:01.145Z,13.90
2019-02-18T22:46:27.839Z,17.90
2019-02-18T22:48:54.555Z,15.23
2019-02-18T22:51:21.571Z,15.13
2019-02-18T22:53:48.278Z,18.17
2019-02-18T22:56:14.987Z,15.30
2019-02-18T22:58:41.682Z,14.80
2019-02-18T23:01:09.179Z,16.33
2019-02-18T23:03:36.087Z,16.33
2019-02-18T23:06:03.276Z,18.37
2019-02-18T23:08:30.075Z,17.17
2019-02-18T23:10:57.671Z,17.00
2019-02-18T23:13:24.467Z,16.73
2019-02-18T23:15:51.191Z,16.67
2019-02-18T23:18:17.996Z,17.93
2019-02-18T23:20:44.795Z,18.13
2019-02-18T23:23:11.707Z,18.23
2019-02-18T23:25:38.520Z,16.07
2019-02-18T23:28:05.323Z,17.03
2019-02-18T23:30:32.423Z,19.13
2019-02-18T23:32:59.130Z,19.30
2019-02-18T23:35:25.838Z,18.53
2019-02-18T23:37:52.535Z,16.10
2019-02-18T23:40:19.239Z,16.57
2019-02-18T23:42:46.047Z,16.37
2019-02-18T23:45:12.755Z,18.80
2019-02-18T23:47:39.475Z,17.20
2019-02-18T23:50:06.408Z,17.00
2019-02-18T23:52:33.212Z,16.73
2019-02-18T23:54:59.923Z,17.77
2019-02-18T23:57:27.226Z,17.20
2019-02-18T23:59:54.207Z,16.70
